sensor_id;sensor_type;location;lat;lon;timestamp;P1;durP1;ratioP1;P2;durP2;ratioP2
78581;SDS011;67878;46.242;5.974;2023-03-15T00:01:52;3.70;;;1.95;;
78581;SDS011;67878;46.242;5.974;2023-03-15T00:04:18;2.90;;;2.00;;
78581;SDS011;67878;46.242;5.974;2023-03-15T00:06:45;4.40;;;1.92;;
78581;SDS011;67878;46.242;5.974;2023-03-15T00:09:10;3.83;;;1.85;;
78581;SDS011;67878;46.242;5.974;2023-03-15T00:11:36;3.75;;;1.77;;
78581;SDS011;67878;46.242;5.974;2023-03-15T00:14:01;3.97;;;2.00;;
78581;SDS011;67878;46.242;5.974;2023-03-15T00:16:27;3.28;;;1.58;;
78581;SDS011;67878;46.242;5.974;2023-03-15T00:18:53;3.80;;;1.90;;
78581;SDS011;67878;46.242;5.974;2023-03-15T00:21:19;4.53;;;1.70;;
78581;SDS011;67878;46.242;5.974;2023-03-15T00:23:45;3.97;;;1.85;;
78581;SDS011;67878;46.242;5.974;2023-03-15T00:26:10;4.15;;;1.70;;
78581;SDS011;67878;46.242;5.974;2023-03-15T00:28:36;4.25;;;1.73;;
78581;SDS011;67878;46.242;5.974;2023-03-15T00:31:07;2.45;;;1.55;;
78581;SDS011;67878;46.242;5.974;2023-03-15T00:33:41;2.75;;;1.67;;
78581;SDS011;67878;46.242;5.974;2023-03-15T00:36:06;2.55;;;1.58;;
78581;SDS011;67878;46.242;5.974;2023-03-15T00:38:33;2.60;;;1.50;;
78581;SDS011;67878;46.242;5.974;2023-03-15T00:41:06;3.15;;;1.70;;
78581;SDS011;67878;46.242;5.974;2023-03-15T00:43:33;2.15;;;1.35;;
78581;SDS011;67878;46.242;5.974;2023-03-15T00:45:59;2.97;;;1.50;;
78581;SDS011;67878;46.242;5.974;2023-03-15T00:48:24;3.03;;;1.58;;
78581;SDS011;67878;46.242;5.974;2023-03-15T00:50:50;3.95;;;1.73;;
78581;SDS011;67878;46.242;5.974;2023-03-15T00:53:15;3.03;;;1.50;;
78581;SDS011;67878;46.242;5.974;2023-03-15T00:55:41;3.05;;;1.75;;
78581;SDS011;67878;46.242;5.974;2023-03-15T00:58:07;2.30;;;1.50;;
78581;SDS011;67878;46.242;5.974;2023-03-15T01:00:32;3.33;;;1.60;;
78581;SDS011;67878;46.242;5.974;2023-03-15T01:02:58;3.47;;;1.40;;
78581;SDS011;67878;46.242;5.974;2023-03-15T01:05:23;2.55;;;1.55;;
78581;SDS011;67878;46.242;5.974;2023-03-15T01:07:50;2.70;;;1.33;;
78581;SDS011;67878;46.242;5.974;2023-03-15T01:10:16;4.22;;;1.60;;
78581;SDS011;67878;46.242;5.974;2023-03-15T01:12:41;3.25;;;1.38;;
78581;SDS011;67878;46.242;5.974;2023-03-15T01:15:07;3.45;;;1.33;;
78581;SDS011;67878;46.242;5.974;2023-03-15T01:17:34;3.67;;;1.33;;
78581;SDS011;67878;46.242;5.974;2023-03-15T01:19:59;2.58;;;1.30;;
78581;SDS011;67878;46.242;5.974;2023-03-15T01:22:25;2.35;;;1.35;;
78581;SDS011;67878;46.242;5.974;2023-03-15T01:24:51;2.08;;;1.40;;
78581;SDS011;67878;46.242;5.974;2023-03-15T01:27:16;1.88;;;1.40;;
78581;SDS011;67878;46.242;5.974;2023-03-15T01:29:42;2.95;;;1.48;;
78581;SDS011;67878;46.242;5.974;2023-03-15T01:32:07;2.22;;;1.20;;
78581;SDS011;67878;46.242;5.974;2023-03-15T01:34:33;2.90;;;1.23;;
78581;SDS011;67878;46.242;5.974;2023-03-15T01:37:00;2.85;;;1.35;;
78581;SDS011;67878;46.242;5.974;2023-03-15T01:39:26;3.80;;;1.40;;
78581;SDS011;67878;46.242;5.974;2023-03-15T01:41:52;4.90;;;1.20;;
78581;SDS011;67878;46.242;5.974;2023-03-15T01:44:18;2.45;;;1.25;;
78581;SDS011;67878;46.242;5.974;2023-03-15T01:46:44;2.83;;;1.27;;
78581;SDS011;67878;46.242;5.974;2023-03-15T01:51:57;1.80;;;1.10;;
78581;SDS011;67878;46.242;5.974;2023-03-15T01:54:27;3.20;;;1.23;;
78581;SDS011;67878;46.242;5.974;2023-03-15T01:59:43;2.17;;;1.20;;
78581;SDS011;67878;46.242;5.974;2023-03-15T02:02:11;3.10;;;1.23;;
78581;SDS011;67878;46.242;5.974;2023-03-15T02:07:38;1.98;;;1.00;;
78581;SDS011;67878;46.242;5.974;2023-03-15T02:10:25;2.65;;;1.15;;
78581;SDS011;67878;46.242;5.974;2023-03-15T02:12:54;1.85;;;1.20;;
78581;SDS011;67878;46.242;5.974;2023-03-15T02:15:21;3.28;;;1.30;;
78581;SDS011;67878;46.242;5.974;2023-03-15T02:17:47;2.83;;;1.00;;
78581;SDS011;67878;46.242;5.974;2023-03-15T02:23:10;1.35;;;1.00;;
78581;SDS011;67878;46.242;5.974;2023-03-15T02:28:30;2.75;;;1.05;;
78581;SDS011;67878;46.242;5.974;2023-03-15T02:33:26;1.65;;;0.88;;
78581;SDS011;67878;46.242;5.974;2023-03-15T02:38:48;2.47;;;1.05;;
78581;SDS011;67878;46.242;5.974;2023-03-15T02:41:20;2.28;;;1.20;;
78581;SDS011;67878;46.242;5.974;2023-03-15T02:43:54;3.30;;;1.10;;
78581;SDS011;67878;46.242;5.974;2023-03-15T02:46:23;2.35;;;1.15;;
78581;SDS011;67878;46.242;5.974;2023-03-15T02:48:50;1.80;;;1.10;;
78581;SDS011;67878;46.242;5.974;2023-03-15T02:51:19;1.98;;;0.90;;
78581;SDS011;67878;46.242;5.974;2023-03-15T02:53:52;2.65;;;1.00;;
78581;SDS011;67878;46.242;5.974;2023-03-15T02:56:20;1.55;;;0.80;;
78581;SDS011;67878;46.242;5.974;2023-03-15T02:58:49;1.45;;;0.90;;
78581;SDS011;67878;46.242;5.974;2023-03-15T03:01:17;2.08;;;1.10;;
78581;SDS011;67878;46.242;5.974;2023-03-15T03:03:45;1.50;;;1.00;;
78581;SDS011;67878;46.242;5.974;2023-03-15T03:06:14;2.17;;;1.15;;
78581;SDS011;67878;46.242;5.974;2023-03-15T03:08:43;1.95;;;1.35;;
78581;SDS011;67878;46.242;5.974;2023-03-15T03:11:11;1.75;;;1.00;;
78581;SDS011;67878;46.242;5.974;2023-03-15T03:13:39;1.40;;;0.90;;
78581;SDS011;67878;46.242;5.974;2023-03-15T03:16:07;1.83;;;0.90;;
78581;SDS011;67878;46.242;5.974;2023-03-15T03:18:34;2.13;;;1.10;;
78581;SDS011;67878;46.242;5.974;2023-03-15T03:21:00;1.80;;;1.02;;
78581;SDS011;67878;46.242;5.974;2023-03-15T03:23:28;1.35;;;0.80;;
78581;SDS011;67878;46.242;5.974;2023-03-15T03:25:57;1.60;;;0.90;;
78581;SDS011;67878;46.242;5.974;2023-03-15T03:28:24;2.45;;;1.00;;
78581;SDS011;67878;46.242;5.974;2023-03-15T03:30:52;1.52;;;1.00;;
78581;SDS011;67878;46.242;5.974;2023-03-15T03:33:20;2.40;;;0.90;;
78581;SDS011;67878;46.242;5.974;2023-03-15T03:35:47;1.60;;;0.98;;
78581;SDS011;67878;46.242;5.974;2023-03-15T03:38:15;2.60;;;1.30;;
78581;SDS011;67878;46.242;5.974;2023-03-15T03:40:42;1.90;;;1.10;;
78581;SDS011;67878;46.242;5.974;2023-03-15T03:43:10;2.17;;;0.80;;
78581;SDS011;67878;46.242;5.974;2023-03-15T03:45:37;1.60;;;0.70;;
78581;SDS011;67878;46.242;5.974;2023-03-15T03:48:02;2.15;;;1.23;;
78581;SDS011;67878;46.242;5.974;2023-03-15T03:50:29;3.70;;;1.00;;
78581;SDS011;67878;46.242;5.974;2023-03-15T03:52:56;1.35;;;0.73;;
78581;SDS011;67878;46.242;5.974;2023-03-15T03:55:21;2.70;;;0.90;;
78581;SDS011;67878;46.242;5.974;2023-03-15T03:57:49;1.42;;;0.90;;
78581;SDS011;67878;46.242;5.974;2023-03-15T04:00:14;0.93;;;0.70;;
78581;SDS011;67878;46.242;5.974;2023-03-15T04:02:40;1.40;;;0.70;;
78581;SDS011;67878;46.242;5.974;2023-03-15T04:05:10;1.80;;;1.05;;
78581;SDS011;67878;46.242;5.974;2023-03-15T04:10:05;1.38;;;0.60;;
78581;SDS011;67878;46.242;5.974;2023-03-15T04:12:31;1.65;;;0.70;;
78581;SDS011;67878;46.242;5.974;2023-03-15T04:14:59;1.45;;;0.80;;
78581;SDS011;67878;46.242;5.974;2023-03-15T04:17:28;1.33;;;0.80;;
78581;SDS011;67878;46.242;5.974;2023-03-15T04:19:55;2.00;;;1.10;;
78581;SDS011;67878;46.242;5.974;2023-03-15T04:22:24;1.55;;;0.70;;
78581;SDS011;67878;46.242;5.974;2023-03-15T04:24:51;1.80;;;0.90;;
78581;SDS011;67878;46.242;5.974;2023-03-15T04:27:18;3.85;;;0.90;;
78581;SDS011;67878;46.242;5.974;2023-03-15T04:29:45;1.63;;;0.90;;
78581;SDS011;67878;46.242;5.974;2023-03-15T04:32:13;1.50;;;0.75;;
78581;SDS011;67878;46.242;5.974;2023-03-15T04:34:42;1.83;;;0.80;;
78581;SDS011;67878;46.242;5.974;2023-03-15T04:37:15;1.95;;;1.00;;
78581;SDS011;67878;46.242;5.974;2023-03-15T04:39:42;1.48;;;0.73;;
78581;SDS011;67878;46.242;5.974;2023-03-15T04:42:10;1.98;;;0.80;;
78581;SDS011;67878;46.242;5.974;2023-03-15T04:44:37;2.35;;;0.75;;
78581;SDS011;67878;46.242;5.974;2023-03-15T04:47:04;1.52;;;0.70;;
78581;SDS011;67878;46.242;5.974;2023-03-15T04:49:31;1.33;;;0.80;;
78581;SDS011;67878;46.242;5.974;2023-03-15T04:51:58;2.20;;;0.68;;
78581;SDS011;67878;46.242;5.974;2023-03-15T04:54:25;3.97;;;0.75;;
78581;SDS011;67878;46.242;5.974;2023-03-15T04:56:54;1.92;;;0.80;;
78581;SDS011;67878;46.242;5.974;2023-03-15T04:59:21;2.70;;;0.70;;
78581;SDS011;67878;46.242;5.974;2023-03-15T05:01:48;1.83;;;0.70;;
78581;SDS011;67878;46.242;5.974;2023-03-15T05:04:15;1.20;;;0.70;;
78581;SDS011;67878;46.242;5.974;2023-03-15T05:06:43;1.67;;;0.75;;
78581;SDS011;67878;46.242;5.974;2023-03-15T05:09:11;1.20;;;0.70;;
78581;SDS011;67878;46.242;5.974;2023-03-15T05:11:43;1.10;;;0.73;;
78581;SDS011;67878;46.242;5.974;2023-03-15T05:14:08;1.55;;;0.60;;
78581;SDS011;67878;46.242;5.974;2023-03-15T05:16:34;1.38;;;0.55;;
78581;SDS011;67878;46.242;5.974;2023-03-15T05:18:59;1.30;;;0.47;;
78581;SDS011;67878;46.242;5.974;2023-03-15T05:21:25;0.93;;;0.50;;
78581;SDS011;67878;46.242;5.974;2023-03-15T05:23:50;1.75;;;0.52;;
78581;SDS011;67878;46.242;5.974;2023-03-15T05:26:15;1.23;;;0.60;;
78581;SDS011;67878;46.242;5.974;2023-03-15T05:28:41;1.02;;;0.70;;
78581;SDS011;67878;46.242;5.974;2023-03-15T05:31:09;2.22;;;0.75;;
78581;SDS011;67878;46.242;5.974;2023-03-15T05:33:34;1.20;;;0.63;;
78581;SDS011;67878;46.242;5.974;2023-03-15T05:36:00;1.23;;;0.50;;
78581;SDS011;67878;46.242;5.974;2023-03-15T05:38:26;1.73;;;0.68;;
78581;SDS011;67878;46.242;5.974;2023-03-15T05:40:53;0.90;;;0.52;;
78581;SDS011;67878;46.242;5.974;2023-03-15T05:43:19;0.57;;;0.50;;
78581;SDS011;67878;46.242;5.974;2023-03-15T05:45:44;1.20;;;0.77;;
78581;SDS011;67878;46.242;5.974;2023-03-15T05:48:11;0.82;;;0.60;;
78581;SDS011;67878;46.242;5.974;2023-03-15T05:50:37;1.20;;;0.55;;
78581;SDS011;67878;46.242;5.974;2023-03-15T05:53:02;0.90;;;0.63;;
78581;SDS011;67878;46.242;5.974;2023-03-15T05:55:27;1.25;;;0.85;;
78581;SDS011;67878;46.242;5.974;2023-03-15T05:57:53;1.60;;;0.80;;
78581;SDS011;67878;46.242;5.974;2023-03-15T06:00:18;0.65;;;0.43;;
78581;SDS011;67878;46.242;5.974;2023-03-15T06:02:45;1.30;;;0.70;;
78581;SDS011;67878;46.242;5.974;2023-03-15T06:05:13;1.00;;;0.77;;
78581;SDS011;67878;46.242;5.974;2023-03-15T06:07:40;1.10;;;0.77;;
78581;SDS011;67878;46.242;5.974;2023-03-15T06:10:05;1.02;;;0.60;;
78581;SDS011;67878;46.242;5.974;2023-03-15T06:12:31;1.02;;;0.70;;
78581;SDS011;67878;46.242;5.974;2023-03-15T06:14:57;1.77;;;0.75;;
78581;SDS011;67878;46.242;5.974;2023-03-15T06:17:22;0.75;;;0.75;;
78581;SDS011;67878;46.242;5.974;2023-03-15T06:19:47;1.42;;;0.98;;
78581;SDS011;67878;46.242;5.974;2023-03-15T06:22:13;2.40;;;0.90;;
78581;SDS011;67878;46.242;5.974;2023-03-15T06:24:38;0.90;;;0.70;;
78581;SDS011;67878;46.242;5.974;2023-03-15T06:27:03;1.45;;;0.80;;
78581;SDS011;67878;46.242;5.974;2023-03-15T06:29:30;1.77;;;0.70;;
78581;SDS011;67878;46.242;5.974;2023-03-15T06:31:56;1.00;;;0.68;;
78581;SDS011;67878;46.242;5.974;2023-03-15T06:34:21;1.45;;;0.73;;
78581;SDS011;67878;46.242;5.974;2023-03-15T06:36:47;1.40;;;0.60;;
78581;SDS011;67878;46.242;5.974;2023-03-15T06:39:13;2.40;;;0.88;;
78581;SDS011;67878;46.242;5.974;2023-03-15T06:41:39;1.00;;;0.60;;
78581;SDS011;67878;46.242;5.974;2023-03-15T06:44:05;1.35;;;0.50;;
78581;SDS011;67878;46.242;5.974;2023-03-15T06:46:31;2.30;;;0.60;;
78581;SDS011;67878;46.242;5.974;2023-03-15T06:48:57;2.13;;;0.60;;
78581;SDS011;67878;46.242;5.974;2023-03-15T06:51:22;2.55;;;0.82;;
78581;SDS011;67878;46.242;5.974;2023-03-15T06:53:48;1.27;;;0.70;;
78581;SDS011;67878;46.242;5.974;2023-03-15T06:56:14;1.38;;;0.70;;
78581;SDS011;67878;46.242;5.974;2023-03-15T06:58:41;0.77;;;0.57;;
78581;SDS011;67878;46.242;5.974;2023-03-15T07:01:06;1.08;;;0.70;;
78581;SDS011;67878;46.242;5.974;2023-03-15T07:03:32;1.95;;;0.63;;
78581;SDS011;67878;46.242;5.974;2023-03-15T07:05:57;2.53;;;0.50;;
78581;SDS011;67878;46.242;5.974;2023-03-15T07:08:23;1.48;;;0.70;;
78581;SDS011;67878;46.242;5.974;2023-03-15T07:10:49;1.48;;;0.60;;
78581;SDS011;67878;46.242;5.974;2023-03-15T07:13:15;1.80;;;0.75;;
78581;SDS011;67878;46.242;5.974;2023-03-15T07:15:41;2.85;;;0.85;;
78581;SDS011;67878;46.242;5.974;2023-03-15T07:18:08;1.83;;;0.93;;
78581;SDS011;67878;46.242;5.974;2023-03-15T07:20:35;1.55;;;0.85;;
78581;SDS011;67878;46.242;5.974;2023-03-15T07:23:05;1.40;;;0.70;;
78581;SDS011;67878;46.242;5.974;2023-03-15T07:25:34;3.35;;;0.95;;
78581;SDS011;67878;46.242;5.974;2023-03-15T07:28:01;3.35;;;0.70;;
78581;SDS011;67878;46.242;5.974;2023-03-15T07:30:27;4.40;;;0.80;;
78581;SDS011;67878;46.242;5.974;2023-03-15T07:32:53;2.25;;;0.70;;
78581;SDS011;67878;46.242;5.974;2023-03-15T07:35:18;2.60;;;0.90;;
78581;SDS011;67878;46.242;5.974;2023-03-15T07:37:45;2.00;;;0.90;;
78581;SDS011;67878;46.242;5.974;2023-03-15T07:40:14;4.70;;;1.10;;
78581;SDS011;67878;46.242;5.974;2023-03-15T07:42:40;6.75;;;1.00;;
78581;SDS011;67878;46.242;5.974;2023-03-15T07:45:06;2.17;;;0.73;;
78581;SDS011;67878;46.242;5.974;2023-03-15T07:47:32;4.90;;;1.20;;
78581;SDS011;67878;46.242;5.974;2023-03-15T07:49:57;1.42;;;0.77;;
78581;SDS011;67878;46.242;5.974;2023-03-15T07:52:23;2.60;;;0.90;;
78581;SDS011;67878;46.242;5.974;2023-03-15T07:54:49;4.32;;;0.90;;
78581;SDS011;67878;46.242;5.974;2023-03-15T07:57:15;2.45;;;0.90;;
78581;SDS011;67878;46.242;5.974;2023-03-15T07:59:40;1.42;;;0.68;;
78581;SDS011;67878;46.242;5.974;2023-03-15T08:02:05;2.47;;;1.00;;
78581;SDS011;67878;46.242;5.974;2023-03-15T08:04:32;3.67;;;0.63;;
78581;SDS011;67878;46.242;5.974;2023-03-15T08:06:59;2.60;;;0.73;;
78581;SDS011;67878;46.242;5.974;2023-03-15T08:09:25;1.85;;;0.75;;
78581;SDS011;67878;46.242;5.974;2023-03-15T08:11:50;2.85;;;0.82;;
78581;SDS011;67878;46.242;5.974;2023-03-15T08:14:16;2.15;;;0.70;;
78581;SDS011;67878;46.242;5.974;2023-03-15T08:16:41;1.83;;;0.75;;
78581;SDS011;67878;46.242;5.974;2023-03-15T08:19:07;2.28;;;0.73;;
78581;SDS011;67878;46.242;5.974;2023-03-15T08:21:33;2.35;;;0.80;;
78581;SDS011;67878;46.242;5.974;2023-03-15T08:23:59;3.33;;;0.90;;
78581;SDS011;67878;46.242;5.974;2023-03-15T08:26:24;1.30;;;0.68;;
78581;SDS011;67878;46.242;5.974;2023-03-15T08:28:50;1.75;;;0.80;;
78581;SDS011;67878;46.242;5.974;2023-03-15T08:31:15;1.50;;;0.60;;
78581;SDS011;67878;46.242;5.974;2023-03-15T08:33:42;2.58;;;0.77;;
78581;SDS011;67878;46.242;5.974;2023-03-15T08:36:09;1.33;;;0.43;;
78581;SDS011;67878;46.242;5.974;2023-03-15T08:38:35;2.35;;;0.90;;
78581;SDS011;67878;46.242;5.974;2023-03-15T08:41:00;1.38;;;0.70;;
78581;SDS011;67878;46.242;5.974;2023-03-15T08:43:27;1.80;;;0.52;;
78581;SDS011;67878;46.242;5.974;2023-03-15T08:45:54;2.25;;;0.80;;
78581;SDS011;67878;46.242;5.974;2023-03-15T08:48:23;2.15;;;1.00;;
78581;SDS011;67878;46.242;5.974;2023-03-15T08:53:17;1.07;;;0.57;;
78581;SDS011;67878;46.242;5.974;2023-03-15T08:55:46;1.67;;;0.80;;
78581;SDS011;67878;46.242;5.974;2023-03-15T08:58:13;1.00;;;0.77;;
78581;SDS011;67878;46.242;5.974;2023-03-15T09:00:39;1.02;;;0.68;;
78581;SDS011;67878;46.242;5.974;2023-03-15T09:03:04;1.13;;;0.50;;
78581;SDS011;67878;46.242;5.974;2023-03-15T09:05:29;1.10;;;0.63;;
78581;SDS011;67878;46.242;5.974;2023-03-15T09:07:55;1.33;;;0.60;;
78581;SDS011;67878;46.242;5.974;2023-03-15T09:10:20;9.40;;;0.80;;
78581;SDS011;67878;46.242;5.974;2023-03-15T09:12:49;3.33;;;0.90;;
78581;SDS011;67878;46.242;5.974;2023-03-15T09:15:17;1.40;;;0.68;;
78581;SDS011;67878;46.242;5.974;2023-03-15T09:17:48;1.10;;;0.77;;
78581;SDS011;67878;46.242;5.974;2023-03-15T09:20:15;1.23;;;0.60;;
78581;SDS011;67878;46.242;5.974;2023-03-15T09:22:43;1.05;;;0.60;;
78581;SDS011;67878;46.242;5.974;2023-03-15T09:25:09;1.17;;;0.60;;
78581;SDS011;67878;46.242;5.974;2023-03-15T09:27:35;0.80;;;0.50;;
78581;SDS011;67878;46.242;5.974;2023-03-15T09:30:01;0.77;;;0.70;;
78581;SDS011;67878;46.242;5.974;2023-03-15T09:32:26;0.88;;;0.60;;
78581;SDS011;67878;46.242;5.974;2023-03-15T09:34:52;0.95;;;0.70;;
78581;SDS011;67878;46.242;5.974;2023-03-15T09:37:17;1.83;;;0.60;;
78581;SDS011;67878;46.242;5.974;2023-03-15T09:39:45;0.85;;;0.57;;
78581;SDS011;67878;46.242;5.974;2023-03-15T09:42:19;1.90;;;0.70;;
78581;SDS011;67878;46.242;5.974;2023-03-15T09:44:51;2.67;;;0.80;;
78581;SDS011;67878;46.242;5.974;2023-03-15T09:52:51;1.50;;;0.70;;
78581;SDS011;67878;46.242;5.974;2023-03-15T09:55:29;1.23;;;0.60;;
78581;SDS011;67878;46.242;5.974;2023-03-15T09:57:59;1.73;;;0.60;;
78581;SDS011;67878;46.242;5.974;2023-03-15T10:03:23;2.15;;;0.60;;
78581;SDS011;67878;46.242;5.974;2023-03-15T10:06:09;1.15;;;0.50;;
78581;SDS011;67878;46.242;5.974;2023-03-15T10:08:41;0.57;;;0.47;;
78581;SDS011;67878;46.242;5.974;2023-03-15T10:11:14;1.98;;;0.68;;
78581;SDS011;67878;46.242;5.974;2023-03-15T10:16:39;1.55;;;0.60;;
78581;SDS011;67878;46.242;5.974;2023-03-15T10:22:02;0.45;;;0.38;;
78581;SDS011;67878;46.242;5.974;2023-03-15T10:24:36;0.88;;;0.45;;
78581;SDS011;67878;46.242;5.974;2023-03-15T10:29:44;1.15;;;0.52;;
78581;SDS011;67878;46.242;5.974;2023-03-15T10:32:16;0.80;;;0.57;;
78581;SDS011;67878;46.242;5.974;2023-03-15T10:34:44;0.65;;;0.50;;
78581;SDS011;67878;46.242;5.974;2023-03-15T10:37:12;0.88;;;0.60;;
78581;SDS011;67878;46.242;5.974;2023-03-15T10:39:37;1.17;;;0.60;;
78581;SDS011;67878;46.242;5.974;2023-03-15T10:42:03;0.90;;;0.60;;
78581;SDS011;67878;46.242;5.974;2023-03-15T10:44:28;1.05;;;0.70;;
78581;SDS011;67878;46.242;5.974;2023-03-15T10:47:00;1.77;;;0.50;;
78581;SDS011;67878;46.242;5.974;2023-03-15T10:49:32;0.70;;;0.60;;
78581;SDS011;67878;46.242;5.974;2023-03-15T10:52:02;1.15;;;0.60;;
78581;SDS011;67878;46.242;5.974;2023-03-15T10:54:28;0.70;;;0.60;;
78581;SDS011;67878;46.242;5.974;2023-03-15T10:57:10;0.70;;;0.57;;
78581;SDS011;67878;46.242;5.974;2023-03-15T10:59:37;1.35;;;0.50;;
78581;SDS011;67878;46.242;5.974;2023-03-15T11:02:33;1.55;;;0.63;;
78581;SDS011;67878;46.242;5.974;2023-03-15T11:07:25;0.68;;;0.50;;
78581;SDS011;67878;46.242;5.974;2023-03-15T11:09:52;1.38;;;0.55;;
78581;SDS011;67878;46.242;5.974;2023-03-15T11:12:22;0.98;;;0.43;;
78581;SDS011;67878;46.242;5.974;2023-03-15T11:14:49;0.35;;;0.30;;
78581;SDS011;67878;46.242;5.974;2023-03-15T11:17:26;1.08;;;0.40;;
78581;SDS011;67878;46.242;5.974;2023-03-15T11:19:58;0.90;;;0.50;;
78581;SDS011;67878;46.242;5.974;2023-03-15T11:22:34;0.60;;;0.50;;
78581;SDS011;67878;46.242;5.974;2023-03-15T11:25:00;1.15;;;0.70;;
78581;SDS011;67878;46.242;5.974;2023-03-15T11:27:25;1.40;;;0.70;;
78581;SDS011;67878;46.242;5.974;2023-03-15T11:29:55;1.38;;;0.47;;
78581;SDS011;67878;46.242;5.974;2023-03-15T11:32:26;0.50;;;0.30;;
78581;SDS011;67878;46.242;5.974;2023-03-15T11:34:55;0.55;;;0.50;;
78581;SDS011;67878;46.242;5.974;2023-03-15T11:37:32;1.55;;;0.50;;
78581;SDS011;67878;46.242;5.974;2023-03-15T11:40:04;0.77;;;0.50;;
78581;SDS011;67878;46.242;5.974;2023-03-15T11:43:23;1.88;;;0.57;;
78581;SDS011;67878;46.242;5.974;2023-03-15T11:45:39;0.90;;;0.40;;
78581;SDS011;67878;46.242;5.974;2023-03-15T11:48:10;2.28;;;0.75;;
78581;SDS011;67878;46.242;5.974;2023-03-15T11:50:41;2.65;;;0.70;;
78581;SDS011;67878;46.242;5.974;2023-03-15T11:53:15;3.35;;;1.17;;
78581;SDS011;67878;46.242;5.974;2023-03-15T11:55:45;3.42;;;1.30;;
78581;SDS011;67878;46.242;5.974;2023-03-15T11:58:26;3.08;;;1.15;;
78581;SDS011;67878;46.242;5.974;2023-03-15T12:00:55;2.83;;;1.25;;
78581;SDS011;67878;46.242;5.974;2023-03-15T12:03:31;4.45;;;1.00;;
78581;SDS011;67878;46.242;5.974;2023-03-15T12:06:02;1.95;;;1.00;;
78581;SDS011;67878;46.242;5.974;2023-03-15T12:08:47;2.70;;;1.10;;
78581;SDS011;67878;46.242;5.974;2023-03-15T12:16:27;2.13;;;1.05;;
78581;SDS011;67878;46.242;5.974;2023-03-15T12:19:01;1.50;;;0.82;;
78581;SDS011;67878;46.242;5.974;2023-03-15T12:21:37;1.17;;;0.82;;
78581;SDS011;67878;46.242;5.974;2023-03-15T12:24:06;1.75;;;0.80;;
78581;SDS011;67878;46.242;5.974;2023-03-15T12:26:45;1.02;;;0.82;;
78581;SDS011;67878;46.242;5.974;2023-03-15T12:31:43;3.35;;;1.10;;
78581;SDS011;67878;46.242;5.974;2023-03-15T12:34:14;1.67;;;0.73;;
78581;SDS011;67878;46.242;5.974;2023-03-15T12:36:47;5.03;;;1.13;;
78581;SDS011;67878;46.242;5.974;2023-03-15T12:41:43;3.38;;;0.90;;
78581;SDS011;67878;46.242;5.974;2023-03-15T12:51:52;1.13;;;0.65;;
78581;SDS011;67878;46.242;5.974;2023-03-15T12:56:59;1.40;;;0.80;;
78581;SDS011;67878;46.242;5.974;2023-03-15T12:59:34;2.30;;;0.80;;
78581;SDS011;67878;46.242;5.974;2023-03-15T13:05:19;2.35;;;0.80;;
78581;SDS011;67878;46.242;5.974;2023-03-15T13:08:08;0.85;;;0.60;;
78581;SDS011;67878;46.242;5.974;2023-03-15T13:18:28;2.45;;;0.70;;
78581;SDS011;67878;46.242;5.974;2023-03-15T13:21:10;2.30;;;0.60;;
78581;SDS011;67878;46.242;5.974;2023-03-15T13:23:38;2.10;;;0.80;;
78581;SDS011;67878;46.242;5.974;2023-03-15T13:26:17;1.25;;;0.85;;
78581;SDS011;67878;46.242;5.974;2023-03-15T13:28:48;1.70;;;0.73;;
78581;SDS011;67878;46.242;5.974;2023-03-15T13:33:48;2.28;;;0.80;;
78581;SDS011;67878;46.242;5.974;2023-03-15T13:36:16;1.08;;;0.60;;
78581;SDS011;67878;46.242;5.974;2023-03-15T13:38:47;1.55;;;0.60;;
78581;SDS011;67878;46.242;5.974;2023-03-15T13:43:52;1.30;;;0.60;;
78581;SDS011;67878;46.242;5.974;2023-03-15T13:46:20;1.48;;;0.50;;
78581;SDS011;67878;46.242;5.974;2023-03-15T13:48:47;0.57;;;0.45;;
78581;SDS011;67878;46.242;5.974;2023-03-15T13:54:02;2.60;;;0.88;;
78581;SDS011;67878;46.242;5.974;2023-03-15T13:56:30;1.67;;;0.60;;
78581;SDS011;67878;46.242;5.974;2023-03-15T13:58:57;0.68;;;0.45;;
78581;SDS011;67878;46.242;5.974;2023-03-15T14:01:22;1.98;;;0.60;;
78581;SDS011;67878;46.242;5.974;2023-03-15T14:03:51;0.73;;;0.50;;
78581;SDS011;67878;46.242;5.974;2023-03-15T14:06:22;0.82;;;0.60;;
78581;SDS011;67878;46.242;5.974;2023-03-15T14:08:48;1.30;;;0.57;;
78581;SDS011;67878;46.242;5.974;2023-03-15T14:11:31;1.88;;;0.57;;
78581;SDS011;67878;46.242;5.974;2023-03-15T14:14:02;0.70;;;0.52;;
78581;SDS011;67878;46.242;5.974;2023-03-15T14:16:40;0.98;;;0.65;;
78581;SDS011;67878;46.242;5.974;2023-03-15T14:21:40;1.60;;;0.60;;
78581;SDS011;67878;46.242;5.974;2023-03-15T14:26:37;1.48;;;0.50;;
78581;SDS011;67878;46.242;5.974;2023-03-15T14:29:06;0.93;;;0.50;;
78581;SDS011;67878;46.242;5.974;2023-03-15T14:31:49;0.80;;;0.50;;
78581;SDS011;67878;46.242;5.974;2023-03-15T14:34:29;0.60;;;0.50;;
78581;SDS011;67878;46.242;5.974;2023-03-15T14:36:59;0.82;;;0.50;;
78581;SDS011;67878;46.242;5.974;2023-03-15T14:39:39;1.20;;;0.45;;
78581;SDS011;67878;46.242;5.974;2023-03-15T14:42:06;0.80;;;0.60;;
78581;SDS011;67878;46.242;5.974;2023-03-15T14:44:34;1.17;;;0.50;;
78581;SDS011;67878;46.242;5.974;2023-03-15T14:46:59;1.13;;;0.47;;
78581;SDS011;67878;46.242;5.974;2023-03-15T14:49:26;1.00;;;0.57;;
78581;SDS011;67878;46.242;5.974;2023-03-15T14:51:55;1.05;;;0.60;;
78581;SDS011;67878;46.242;5.974;2023-03-15T14:54:24;0.60;;;0.43;;
78581;SDS011;67878;46.242;5.974;2023-03-15T14:56:50;0.88;;;0.50;;
78581;SDS011;67878;46.242;5.974;2023-03-15T14:59:15;0.98;;;0.68;;
78581;SDS011;67878;46.242;5.974;2023-03-15T15:01:41;1.40;;;0.60;;
78581;SDS011;67878;46.242;5.974;2023-03-15T15:04:10;0.55;;;0.50;;
78581;SDS011;67878;46.242;5.974;2023-03-15T15:06:36;0.57;;;0.43;;
78581;SDS011;67878;46.242;5.974;2023-03-15T15:09:02;1.77;;;0.57;;
78581;SDS011;67878;46.242;5.974;2023-03-15T15:11:29;0.73;;;0.43;;
78581;SDS011;67878;46.242;5.974;2023-03-15T15:13:55;1.63;;;0.50;;
78581;SDS011;67878;46.242;5.974;2023-03-15T15:16:21;0.95;;;0.35;;
78581;SDS011;67878;46.242;5.974;2023-03-15T15:18:47;0.98;;;0.50;;
78581;SDS011;67878;46.242;5.974;2023-03-15T15:21:22;0.93;;;0.43;;
78581;SDS011;67878;46.242;5.974;2023-03-15T15:23:50;0.68;;;0.60;;
78581;SDS011;67878;46.242;5.974;2023-03-15T15:26:19;1.60;;;0.50;;
78581;SDS011;67878;46.242;5.974;2023-03-15T15:28:46;0.85;;;0.50;;
78581;SDS011;67878;46.242;5.974;2023-03-15T15:31:14;0.77;;;0.40;;
78581;SDS011;67878;46.242;5.974;2023-03-15T15:33:41;1.88;;;0.60;;
78581;SDS011;67878;46.242;5.974;2023-03-15T15:36:11;0.80;;;0.57;;
78581;SDS011;67878;46.242;5.974;2023-03-15T15:38:38;0.68;;;0.47;;
78581;SDS011;67878;46.242;5.974;2023-03-15T15:41:14;0.70;;;0.52;;
78581;SDS011;67878;46.242;5.974;2023-03-15T15:43:44;0.50;;;0.50;;
78581;SDS011;67878;46.242;5.974;2023-03-15T15:46:14;1.30;;;0.50;;
78581;SDS011;67878;46.242;5.974;2023-03-15T15:48:39;0.98;;;0.47;;
78581;SDS011;67878;46.242;5.974;2023-03-15T15:51:28;0.55;;;0.35;;
78581;SDS011;67878;46.242;5.974;2023-03-15T15:53:56;0.60;;;0.40;;
78581;SDS011;67878;46.242;5.974;2023-03-15T15:56:27;0.73;;;0.50;;
78581;SDS011;67878;46.242;5.974;2023-03-15T16:01:29;0.93;;;0.40;;
78581;SDS011;67878;46.242;5.974;2023-03-15T16:03:55;1.27;;;0.40;;
78581;SDS011;67878;46.242;5.974;2023-03-15T16:06:21;0.45;;;0.40;;
78581;SDS011;67878;46.242;5.974;2023-03-15T16:08:47;0.90;;;0.50;;
78581;SDS011;67878;46.242;5.974;2023-03-15T16:11:16;0.73;;;0.45;;
78581;SDS011;67878;46.242;5.974;2023-03-15T16:13:44;0.98;;;0.60;;
78581;SDS011;67878;46.242;5.974;2023-03-15T16:16:15;0.50;;;0.50;;
78581;SDS011;67878;46.242;5.974;2023-03-15T16:18:45;0.98;;;0.40;;
78581;SDS011;67878;46.242;5.974;2023-03-15T16:21:15;1.13;;;0.40;;
78581;SDS011;67878;46.242;5.974;2023-03-15T16:23:54;1.17;;;0.60;;
78581;SDS011;67878;46.242;5.974;2023-03-15T16:26:23;0.98;;;0.50;;